Time;durP1;ratioP1;P1;durP2;ratioP2;P2;SDS_P1;SDS_P2;PMS_P1;PMS_P2;Temp;Humidity;BMP_temperature;BMP_pressure;BME280_temperature;BME280_humidity;BME280_pressure;Samples;Min_cycle;Max_cycle;Signal;HPM_P1;HPM_P2
2022/03/04 07:23:51;;;;;;;;;58.00;48.25;;;;;14.36;100.00;101423.53;6273900;22;46407;-88
2022/03/04 07:26:17;;;;;;;;;60.00;48.50;;;;;14.35;100.00;101412.09;6330673;22;45651;-88
2022/03/04 07:28:42;;;;;;;;;58.50;46.25;;;;;14.32;100.00;101411.06;6304179;22;45358;-88
2022/03/04 07:31:08;;;;;;;;;63.75;48.00;;;;;14.49;100.00;101427.59;6333985;22;45645;-86
2022/03/04 07:33:36;;;;;;;;;60.25;47.00;;;;;14.57;100.00;101426.16;6330581;22;45411;-86
2022/03/04 07:36:02;;;;;;;;;57.25;48.00;;;;;14.66;100.00;101427.38;6305277;22;45506;-86
2022/03/04 07:38:28;;;;;;;;;58.25;45.00;;;;;14.69;100.00;101428.38;6332140;22;45323;-86
2022/03/04 07:40:53;;;;;;;;;61.00;47.50;;;;;14.73;100.00;101438.25;6331670;22;45536;-86
2022/03/04 07:43:22;;;;;;;;;61.25;47.50;;;;;14.74;100.00;101426.81;6302500;22;45586;-86
2022/03/04 07:45:47;;;;;;;;;59.50;46.50;;;;;14.85;100.00;101440.44;6333615;22;45319;-86
2022/03/04 07:48:13;;;;;;;;;60.00;45.75;;;;;14.91;100.00;101439.84;6335984;22;45344;-86
2022/03/04 07:50:38;;;;;;;;;61.50;48.25;;;;;14.95;100.00;101444.38;6331654;22;45989;-86
2022/03/04 07:53:03;;;;;;;;;59.00;46.00;;;;;14.97;100.00;101440.03;6308977;22;45391;-86
2022/03/04 07:55:29;;;;;;;;;62.00;47.25;;;;;15.05;100.00;101442.97;6333301;22;45336;-86
2022/03/04 07:57:55;;;;;;;;;63.50;47.50;;;;;15.12;100.00;101441.50;6331812;22;45380;-86
2022/03/04 08:00:24;;;;;;;;;57.50;48.25;;;;;15.22;100.00;101450.66;6332727;22;46280;-88
2022/03/04 08:02:50;;;;;;;;;57.50;47.25;;;;;15.28;100.00;101453.53;6307738;22;45360;-87
2022/03/04 08:05:16;;;;;;;;;61.75;46.25;;;;;15.40;100.00;101455.75;6335389;22;45253;-88
2022/03/04 08:07:41;;;;;;;;;66.75;50.50;;;;;15.44;100.00;101451.44;6335506;22;45499;-87
2022/03/04 08:10:09;;;;;;;;;61.75;47.50;;;;;15.55;100.00;101440.34;6332718;22;48237;-90
2022/03/04 08:12:35;;;;;;;;;63.25;49.50;;;;;15.68;100.00;101460.22;6331039;22;45322;-87
2022/03/04 08:15:00;;;;;;;;;61.00;46.75;;;;;15.74;100.00;101456.06;6333699;22;45346;-87
2022/03/04 08:17:26;;;;;;;;;61.50;48.25;;;;;15.81;100.00;101453.63;6338126;22;45352;-88
2022/03/04 08:19:51;;;;;;;;;64.75;48.75;;;;;15.91;100.00;101463.69;6331752;22;48214;-87
2022/03/04 08:22:17;;;;;;;;;66.50;52.00;;;;;16.00;100.00;101468.41;6306535;22;45663;-89
2022/03/04 08:24:43;;;;;;;;;63.75;49.75;;;;;16.04;100.00;101465.00;6308422;22;45310;-90
2022/03/04 08:27:08;;;;;;;;;65.00;50.25;;;;;16.11;100.00;101478.47;6304864;22;45316;-88
2022/03/04 08:29:33;;;;;;;;;62.00;50.25;;;;;16.14;100.00;101470.63;6341895;22;48096;-92
2022/03/04 08:32:00;;;;;;;;;66.75;51.00;;;;;16.15;100.00;101476.00;6338624;22;45332;-87
2022/03/04 08:34:25;;;;;;;;;65.75;50.75;;;;;16.25;100.00;101473.66;6340228;22;45292;-87
2022/03/04 08:36:50;;;;;;;;;61.75;47.75;;;;;16.36;100.00;101468.72;6344196;22;45354;-88
2022/03/04 08:39:17;;;;;;;;;64.25;50.00;;;;;16.46;100.00;101475.22;6336361;22;46216;-89
2022/03/04 08:41:42;;;;;;;;;61.50;49.25;;;;;16.44;100.00;101474.28;6331714;22;45746;-87
2022/03/04 08:44:08;;;;;;;;;65.25;50.50;;;;;16.53;100.00;101475.47;6327376;22;45493;-89
2022/03/04 08:46:34;;;;;;;;;66.25;51.00;;;;;16.62;100.00;101476.63;6331274;22;45416;-87
2022/03/04 08:48:59;;;;;;;;;63.00;49.25;;;;;16.66;100.00;101464.34;6289373;22;47106;-88
2022/03/04 08:51:26;;;;;;;;;67.00;51.25;;;;;16.77;100.00;101481.50;6336138;22;45297;-89
2022/03/04 08:53:52;;;;;;;;;61.25;48.50;;;;;16.85;100.00;101479.97;6331873;22;45387;-89
2022/03/04 08:56:18;;;;;;;;;66.25;52.00;;;;;16.89;100.00;101482.72;6302295;22;45336;-89
2022/03/04 08:58:43;;;;;;;;;63.00;50.25;;;;;16.95;100.00;101478.53;6308263;22;47918;-88
2022/03/04 09:01:08;;;;;;;;;64.75;50.25;;;;;17.06;100.00;101491.22;6305626;22;45480;-89
2022/03/04 09:03:34;;;;;;;;;65.50;50.00;;;;;17.15;100.00;101480.88;6333704;22;45570;-89
2022/03/04 09:05:59;;;;;;;;;63.75;52.25;;;;;17.24;100.00;101477.63;6305810;22;45736;-88
2022/03/04 09:08:24;;;;;;;;;63.75;46.25;;;;;17.37;100.00;101484.19;6329617;22;45574;-88
2022/03/04 09:10:50;;;;;;;;;65.50;50.75;;;;;17.49;100.00;101488.97;6330534;22;45664;-88
2022/03/04 09:13:15;;;;;;;;;64.00;50.25;;;;;17.58;100.00;101487.41;6331991;22;45272;-90
2022/03/04 09:15:41;;;;;;;;;70.75;55.00;;;;;17.68;100.00;101494.78;6332647;22;45334;-89
2022/03/04 09:18:06;;;;;;;;;68.25;52.50;;;;;17.73;100.00;101497.59;6333366;22;46081;-89
2022/03/04 09:20:32;;;;;;;;;58.50;49.00;;;;;17.71;100.00;101496.63;6304957;22;45301;-89
2022/03/04 09:22:58;;;;;;;;;68.00;52.75;;;;;17.70;100.00;101494.84;6331356;22;45509;-89
2022/03/04 09:25:23;;;;;;;;;70.25;52.50;;;;;17.69;100.00;101493.94;6331153;22;45653;-87
2022/03/04 09:27:50;;;;;;;;;61.00;50.00;;;;;17.70;100.00;101490.44;6329519;22;45880;-87
2022/03/04 09:30:16;;;;;;;;;67.25;52.25;;;;;17.76;100.00;101489.69;6329803;22;45397;-87
2022/03/04 09:32:41;;;;;;;;;64.25;52.50;;;;;17.82;100.00;101499.56;6330969;22;45729;-89
2022/03/04 09:35:07;;;;;;;;;64.75;52.25;;;;;17.90;100.00;101487.41;6303698;22;45774;-89
2022/03/04 09:37:33;;;;;;;;;71.75;56.00;;;;;17.97;100.00;101491.13;6303302;22;47130;-89
2022/03/04 09:39:59;;;;;;;;;66.00;50.75;;;;;17.98;100.00;101490.28;6302935;22;45597;-89
2022/03/04 09:42:24;;;;;;;;;61.50;50.50;;;;;18.02;100.00;101493.88;6329449;22;45411;-89
2022/03/04 09:44:49;;;;;;;;;67.75;50.75;;;;;18.01;100.00;101495.69;6327980;22;45686;-89
2022/03/04 09:47:20;;;;;;;;;68.75;52.50;;;;;18.06;100.00;101491.38;6331026;22;45315;-89
2022/03/04 09:49:46;;;;;;;;;68.50;51.75;;;;;18.01;100.00;101503.66;6329110;22;45893;-89
2022/03/04 09:52:12;;;;;;;;;69.25;52.00;;;;;17.90;100.00;101490.06;6330627;22;45456;-89
2022/03/04 09:54:37;;;;;;;;;67.50;53.00;;;;;17.94;100.00;101499.00;6332371;22;45387;-88
2022/03/04 09:57:03;;;;;;;;;63.50;50.75;;;;;17.97;100.00;101494.69;6328433;22;48135;-89
2022/03/04 09:59:28;;;;;;;;;72.50;53.75;;;;;18.00;100.00;101499.19;6329854;22;45859;-89
2022/03/04 10:01:57;;;;;;;;;69.00;53.50;;;;;18.09;100.00;101503.84;6330912;22;45336;-89
2022/03/04 10:04:27;;;;;;;;;66.00;52.00;;;;;18.10;100.00;101500.31;6332376;22;45307;-89
2022/03/04 10:06:52;;;;;;;;;66.00;51.25;;;;;18.02;100.00;101507.19;6329801;22;45636;-88
2022/03/04 10:09:57;;;;;;;;;71.50;52.75;;;;;18.17;100.00;101502.25;6331189;22;45537;-89
2022/03/04 10:12:23;;;;;;;;;68.75;52.25;;;;;18.14;100.00;101502.19;6234029;22;45407;-89
2022/03/04 10:15:01;;;;;;;;;66.50;51.50;;;;;18.24;100.00;101490.09;6208467;22;45374;-90
2022/03/04 10:17:26;;;;;;;;;67.50;52.25;;;;;18.24;100.00;101498.06;6233632;22;46390;-89
2022/03/04 10:19:54;;;;;;;;;64.25;47.75;;;;;18.37;100.00;101509.00;6209482;22;46049;-89
2022/03/04 10:22:20;;;;;;;;;61.75;46.75;;;;;18.41;100.00;101503.78;6210593;22;45454;-90
2022/03/04 10:24:45;;;;;;;;;63.25;48.50;;;;;18.51;100.00;101504.00;6236467;22;45600;-90
2022/03/04 10:27:13;;;;;;;;;62.25;48.75;;;;;18.59;100.00;101507.75;6209442;22;48333;-90
2022/03/04 10:29:47;;;;;;;;;68.50;51.00;;;;;18.62;100.00;101504.28;6209771;22;45299;-92
2022/03/04 10:32:22;;;;;;;;;64.50;50.00;;;;;18.64;100.00;101510.53;6211246;22;45651;-90
2022/03/04 10:35:03;;;;;;;;;63.00;50.75;;;;;18.63;100.00;101512.28;6239145;22;45410;-90
2022/03/04 10:37:48;;;;;;;;;65.00;50.00;;;;;18.65;100.00;101515.00;6238186;22;48024;-90
2022/03/04 10:40:20;;;;;;;;;66.00;48.25;;;;;18.65;100.00;101515.91;6211346;22;45526;-90
2022/03/04 10:42:53;;;;;;;;;61.50;49.00;;;;;18.73;100.00;101513.41;6270558;22;45330;-90
2022/03/04 10:45:22;;;;;;;;;61.50;47.75;;;;;18.78;100.00;101509.97;6332636;22;45444;-89
2022/03/04 10:47:50;;;;;;;;;58.50;47.00;;;;;18.83;100.00;101508.31;6304073;22;48267;-90
2022/03/04 10:50:18;;;;;;;;;62.25;49.25;;;;;18.86;100.00;101513.72;6333858;22;45336;-90
2022/03/04 10:52:50;;;;;;;;;61.50;48.00;;;;;18.99;100.00;101505.13;6335689;22;45572;-90
2022/03/04 10:55:50;;;;;;;;;61.25;47.75;;;;;19.07;100.00;101513.28;6304534;22;45236;-90
2022/03/04 10:58:18;;;;;;;;;61.00;47.50;;;;;19.17;100.00;101519.69;6153075;23;47788;-91
2022/03/04 11:01:06;;;;;;;;;62.00;48.25;;;;;19.22;100.00;101513.63;6174114;23;45472;-90
2022/03/04 11:03:33;;;;;;;;;57.25;45.75;;;;;19.35;100.00;101507.72;6161282;23;45298;-91
2022/03/04 11:06:18;;;;;;;;;57.50;45.50;;;;;19.51;100.00;101505.34;6161864;23;45204;-90
2022/03/04 11:08:45;;;;;;;;;56.00;43.75;;;;;19.56;100.00;101514.31;6176764;23;46915;-91
2022/03/04 11:11:11;;;;;;;;;58.50;47.50;;;;;19.60;100.00;101516.19;6173868;23;45769;-90
2022/03/04 11:13:37;;;;;;;;;62.00;47.75;;;;;19.64;100.00;101512.72;6176359;23;45488;-91
2022/03/04 11:16:05;;;;;;;;;61.50;47.75;;;;;19.81;100.00;101516.56;6176846;23;45431;-90
2022/03/04 11:18:33;;;;;;;;;60.25;47.50;;;;;19.88;100.00;101516.72;6153920;23;47050;-90
2022/03/04 11:20:59;;;;;;;;;56.75;45.00;;;;;19.90;100.00;101511.41;6182628;23;45311;-89
2022/03/04 11:23:30;;;;;;;;;65.00;49.75;;;;;20.03;100.00;101509.88;6160260;23;45463;-88
2022/03/04 11:26:04;;;;;;;;;62.00;49.00;;;;;20.07;100.00;101506.41;6158474;23;45307;-88
2022/03/04 11:28:41;;;;;;;;;62.75;50.00;;;;;20.08;100.00;101516.19;6156945;23;48223;-87
2022/03/04 11:31:10;;;;;;;;;65.75;50.50;;;;;20.06;100.00;101515.28;6157815;23;45499;-88
2022/03/04 11:33:53;;;;;;;;;63.25;48.75;;;;;20.15;100.00;101503.03;6213849;22;45374;-87
2022/03/04 11:36:22;;;;;;;;;63.00;49.50;;;;;20.25;100.00;101504.97;6301777;22;45494;-88
2022/03/04 11:38:48;;;;;;;;;67.25;53.25;;;;;20.31;100.00;101498.81;6303119;22;45362;-89
2022/03/04 11:41:26;;;;;;;;;64.75;49.75;;;;;20.49;100.00;101500.00;6299522;22;45316;-89
2022/03/04 11:43:55;;;;;;;;;61.25;51.25;;;;;20.59;100.00;101501.06;6302533;22;45381;-88
2022/03/04 11:46:25;;;;;;;;;67.75;52.25;;;;;20.74;100.00;101493.31;6299643;22;45658;-89
2022/03/04 11:49:44;;;;;;;;;65.00;50.25;;;;;20.87;100.00;101497.00;6301254;22;45751;-89
2022/03/04 11:52:09;;;;;;;;;67.75;52.00;;;;;20.79;100.00;101492.47;6299101;22;45236;-87
2022/03/04 11:54:38;;;;;;;;;70.25;52.00;;;;;20.92;100.00;101490.88;6306362;22;45323;-88
2022/03/04 11:57:22;;;;;;;;;64.50;49.75;;;;;20.97;100.00;101492.72;6300076;22;45353;-88
2022/03/04 11:59:59;;;;;;;;;64.75;50.75;;;;;20.99;100.00;101496.31;6311778;22;46204;-90
2022/03/04 12:02:35;;;;;;;;;66.25;51.25;;;;;21.08;100.00;101492.88;6303430;22;45375;-90
2022/03/04 12:05:13;;;;;;;;;63.25;51.00;;;;;21.24;100.00;101495.75;6327584;22;45371;-90
2022/03/04 12:07:40;;;;;;;;;65.25;51.75;;;;;21.28;100.00;101489.59;6301234;22;45259;-90
2022/03/04 12:10:13;;;;;;;;;65.00;50.50;;;;;21.46;100.00;101490.69;6328392;22;47289;-90
2022/03/04 12:12:58;;;;;;;;;63.25;50.25;;;;;21.46;100.00;101485.34;6330312;22;45451;-86
2022/03/04 12:15:23;;;;;;;;;64.25;49.00;;;;;21.50;100.00;101497.84;6319029;22;45256;-90
2022/03/04 12:17:52;;;;;;;;;64.00;47.25;;;;;21.58;100.00;101489.94;6315967;22;45313;-90
2022/03/04 12:20:26;;;;;;;;;63.25;50.00;;;;;21.55;100.00;101496.13;6314461;22;47027;-90
2022/03/04 12:22:59;;;;;;;;;62.50;49.00;;;;;21.52;100.00;101489.84;6311611;22;45230;-89
2022/03/04 12:25:49;;;;;;;;;63.75;49.50;;;;;21.59;100.00;101486.41;6303875;22;45239;-91
2022/03/04 12:28:16;;;;;;;;;59.75;45.75;;;;;21.55;100.00;101481.88;6298529;22;45327;-88
2022/03/04 12:30:41;;;;;;;;;68.50;51.75;;;;;21.57;100.00;101481.91;6300702;22;46456;-89
2022/03/04 12:33:08;;;;;;;;;62.50;49.75;;;;;21.61;100.00;101487.31;6297041;22;45514;-89
2022/03/04 12:35:33;;;;;;;;;63.25;50.00;;;;;21.60;100.00;101487.25;6326548;22;45356;-91
2022/03/04 12:38:00;;;;;;;;;65.50;50.75;;;;;21.53;100.00;101478.31;6331184;22;45319;-88
2022/03/04 12:40:28;;;;;;;;;65.00;49.75;;;;;21.41;100.00;101479.06;6301455;22;47680;-89
2022/03/04 12:42:55;;;;;;;;;62.00;49.00;;;;;21.37;100.00;101478.13;6331689;22;45368;-87
2022/03/04 12:45:21;;;;;;;;;61.25;49.25;;;;;21.34;100.00;101485.22;6304289;22;45289;-89
2022/03/04 12:47:47;;;;;;;;;58.00;47.00;;;;;21.23;100.00;101477.97;6305194;22;45409;-88
2022/03/04 12:50:12;;;;;;;;;57.75;46.75;;;;;21.14;100.00;101485.84;6338606;22;46981;-88
2022/03/04 12:52:39;;;;;;;;;56.75;45.00;;;;;21.06;100.00;101480.41;6332547;22;45384;-89
2022/03/04 12:55:05;;;;;;;;;59.00;46.25;;;;;20.96;100.00;101469.56;6332651;22;45398;-90
2022/03/04 12:57:31;;;;;;;;;57.75;45.50;;;;;20.92;100.00;101480.19;6300770;22;45589;-87
2022/03/04 12:59:58;;;;;;;;;59.50;48.25;;;;;20.84;100.00;101477.41;6325390;22;46891;-88
2022/03/04 13:02:32;;;;;;;;;57.50;43.25;;;;;20.81;100.00;101478.28;6303518;22;45600;-87
2022/03/04 13:04:59;;;;;;;;;60.00;46.50;;;;;20.82;100.00;101463.16;6334997;22;45321;-89
2022/03/04 13:07:25;;;;;;;;;54.50;43.00;;;;;20.74;100.00;101463.97;6303248;22;45341;-88
2022/03/04 13:09:50;;;;;;;;;58.00;46.00;;;;;20.72;100.00;101460.34;6332199;22;46442;-88
2022/03/04 13:12:21;;;;;;;;;61.50;49.00;;;;;20.74;100.00;101469.28;6328940;22;45400;-88
2022/03/04 13:14:47;;;;;;;;;60.00;46.00;;;;;20.63;100.00;101455.78;6303014;22;45635;-89
2022/03/04 13:17:14;;;;;;;;;58.00;46.25;;;;;20.60;100.00;101457.50;6328734;22;45631;-89
2022/03/04 13:19:40;;;;;;;;;59.50;47.25;;;;;20.52;100.00;101468.06;6332329;22;45454;-88
2022/03/04 13:22:10;;;;;;;;;61.00;47.00;;;;;20.50;100.00;101462.72;6331318;22;45433;-88
2022/03/04 13:24:41;;;;;;;;;60.25;47.00;;;;;20.45;100.00;101450.16;6302990;22;45498;-90
2022/03/04 13:27:09;;;;;;;;;61.00;47.50;;;;;20.44;100.00;101462.59;6331067;22;45411;-87
2022/03/04 13:29:55;;;;;;;;;61.75;47.00;;;;;20.44;100.00;101451.94;6302564;22;47200;-88
2022/03/04 13:32:22;;;;;;;;;56.00;45.00;;;;;20.36;100.00;101456.28;6302940;22;45604;-88
2022/03/04 13:35:10;;;;;;;;;53.25;44.25;;;;;20.40;100.00;101459.00;6327336;22;45586;-89
2022/03/04 13:37:41;;;;;;;;;60.50;47.00;;;;;20.39;100.00;101443.88;6303214;22;45413;-88
2022/03/04 13:40:25;;;;;;;;;59.00;45.75;;;;;20.36;100.00;101446.47;6331661;22;46395;-87
2022/03/04 13:42:58;;;;;;;;;56.00;45.00;;;;;20.32;100.00;101444.66;6330427;22;45368;-89
2022/03/04 13:45:46;;;;;;;;;56.25;43.25;;;;;20.28;100.00;101443.69;6302762;22;45314;-90
2022/03/04 13:48:11;;;;;;;;;50.25;37.00;;;;;20.15;100.00;101445.25;6334010;22;45467;-89
2022/03/04 13:50:39;;;;;;;;;59.25;44.25;;;;;20.17;100.00;101454.19;6331961;22;45383;-86
2022/03/04 13:53:06;;;;;;;;;59.25;45.25;;;;;20.16;100.00;101459.50;6332172;22;45319;-89
2022/03/04 13:55:40;;;;;;;;;55.75;42.50;;;;;20.31;100.00;101448.19;6332844;22;45367;-87
2022/03/04 13:58:26;;;;;;;;;57.00;42.50;;;;;20.34;100.00;101439.34;6331589;22;45285;-88
2022/03/04 14:01:00;;;;;;;;;53.50;42.00;;;;;20.33;100.00;101443.78;6303251;22;47335;-89
2022/03/04 14:03:40;;;;;;;;;52.75;43.00;;;;;20.21;100.00;101434.72;6332113;22;45692;-90
2022/03/04 14:06:08;;;;;;;;;53.50;43.25;;;;;20.13;100.00;101439.00;6331870;22;45552;-89
2022/03/04 14:08:34;;;;;;;;;52.75;42.75;;;;;20.09;100.00;101446.03;6305180;22;45344;-90
2022/03/04 14:11:11;;;;;;;;;53.75;42.75;;;;;20.10;100.00;101450.47;6331622;22;46255;-90
2022/03/04 14:13:37;;;;;;;;;49.00;38.75;;;;;19.96;100.00;101444.94;6331551;22;45299;-90
2022/03/04 14:16:05;;;;;;;;;55.00;44.50;;;;;19.99;100.00;101450.31;6305322;22;45312;-90
2022/03/04 14:18:30;;;;;;;;;54.50;44.00;;;;;19.97;100.00;101453.84;6335994;22;45316;-89
2022/03/04 14:20:59;;;;;;;;;52.00;41.25;;;;;20.03;100.00;101448.59;6334482;22;46184;-90
2022/03/04 14:23:25;;;;;;;;;54.50;44.25;;;;;19.99;100.00;101441.44;6335217;22;45363;-89
2022/03/04 14:25:52;;;;;;;;;57.00;44.75;;;;;19.98;100.00;101444.94;6332205;22;45455;-89
2022/03/04 14:28:18;;;;;;;;;51.00;41.75;;;;;19.93;100.00;101446.63;6333745;22;45709;-89
2022/03/04 14:30:46;;;;;;;;;51.25;42.75;;;;;19.96;100.00;101457.34;6333921;22;45757;-90
2022/03/04 14:33:12;;;;;;;;;49.50;40.75;;;;;19.83;100.00;101453.56;6307047;22;45604;-90
2022/03/04 14:35:43;;;;;;;;;54.25;43.75;;;;;19.85;100.00;101457.16;6335477;22;45397;-90
2022/03/04 14:38:09;;;;;;;;;51.25;42.75;;;;;19.73;100.00;101455.16;6334608;22;45324;-90
2022/03/04 14:40:36;;;;;;;;;49.00;38.75;;;;;19.71;100.00;101451.59;6329992;22;46942;-88
2022/03/04 14:43:03;;;;;;;;;44.50;37.00;;;;;19.62;100.00;101461.19;6325519;22;45622;-88
2022/03/04 14:45:31;;;;;;;;;44.75;35.25;;;;;19.58;100.00;101455.78;6302904;22;45412;-88
2022/03/04 14:47:57;;;;;;;;;50.50;39.50;;;;;19.56;100.00;101461.06;6331741;22;45395;-90
2022/03/04 14:50:26;;;;;;;;;42.00;35.25;;;;;19.57;100.00;101454.88;6304454;22;47475;-89
2022/03/04 14:52:53;;;;;;;;;46.00;35.50;;;;;19.46;100.00;101451.09;6303610;22;45437;-89
2022/03/04 14:55:20;;;;;;;;;40.25;34.00;;;;;19.42;100.00;101451.06;6330900;22;45424;-89
2022/03/04 14:57:46;;;;;;;;;32.00;29.75;;;;;19.26;100.00;101446.28;6329981;22;45370;-90
2022/03/04 15:00:14;;;;;;;;;39.50;32.75;;;;;19.26;100.00;101449.84;6300531;22;47154;-88
2022/03/04 15:02:42;;;;;;;;;43.00;33.50;;;;;19.12;100.00;101456.63;6304124;22;45346;-89
2022/03/04 15:05:09;;;;;;;;;31.33;25.00;;;;;18.96;100.00;101446.56;6329838;22;45657;-88
2022/03/04 15:07:34;;;;;;;;;34.00;27.33;;;;;18.83;100.00;101447.13;6328890;22;45419;-89
2022/03/04 15:09:59;;;;;;;;;28.33;27.00;;;;;18.70;100.00;101452.19;6302259;22;46993;-89
2022/03/04 15:12:25;;;;;;;;;27.00;23.33;;;;;18.63;100.00;101453.78;6327467;22;45374;-89
2022/03/04 15:14:50;;;;;;;;;27.00;25.33;;;;;18.56;100.00;101458.91;6331662;22;45578;-89
2022/03/04 15:17:15;;;;;;;;;35.33;27.33;;;;;18.40;100.00;101443.50;6332129;22;45444;-88
2022/03/04 15:19:41;;;;;;;;;30.33;25.00;;;;;18.47;100.00;101457.88;6331700;22;45779;-89
2022/03/04 15:22:09;;;;;;;;;28.75;24.00;;;;;18.42;100.00;101459.50;6331363;22;45296;-89
2022/03/04 15:24:35;;;;;;;;;27.00;23.75;;;;;18.34;100.00;101454.00;6303565;22;45560;-89
2022/03/04 15:27:03;;;;;;;;;23.00;22.67;;;;;18.33;100.00;101454.84;6331195;22;45362;-89
2022/03/04 15:29:29;;;;;;;;;26.00;24.67;;;;;18.25;100.00;101457.31;6331200;22;47249;-85
2022/03/04 15:31:56;;;;;;;;;34.25;29.00;;;;;18.17;100.00;101454.44;6303719;22;45747;-84
2022/03/04 15:34:23;;;;;;;;;33.00;28.00;;;;;18.13;100.00;101457.91;6333466;22;45604;-84
2022/03/04 15:36:49;;;;;;;;;31.33;25.00;;;;;18.07;100.00;101447.09;6332531;22;45309;-91
2022/03/04 15:39:15;;;;;;;;;28.00;26.25;;;;;18.00;100.00;101450.47;6331980;22;47848;-92
2022/03/04 15:41:47;;;;;;;;;33.75;27.75;;;;;17.98;100.00;101453.09;6331122;22;45320;-90
2022/03/04 15:44:18;;;;;;;;;27.00;27.00;;;;;17.98;100.00;101450.44;6304249;22;45290;-89
2022/03/04 15:46:44;;;;;;;;;31.00;29.75;;;;;17.95;100.00;101456.56;6329992;22;45290;-88
2022/03/04 15:49:10;;;;;;;;;33.00;27.75;;;;;17.87;100.00;101450.16;6304358;22;48135;-88
2022/03/04 15:51:35;;;;;;;;;32.75;29.00;;;;;17.81;100.00;101458.84;6304908;22;45482;-89
2022/03/04 15:54:01;;;;;;;;;35.67;29.00;;;;;17.73;100.00;101455.97;6302836;22;45423;-87
2022/03/04 15:56:26;;;;;;;;;37.50;28.75;;;;;17.71;100.00;101470.06;6304366;22;45633;-89
2022/03/04 15:58:51;;;;;;;;;36.50;33.00;;;;;17.65;100.00;101471.69;6341846;22;50847;-90
2022/03/04 16:01:17;;;;;;;;;40.75;34.00;;;;;17.64;100.00;101466.34;6323592;22;44828;-90
2022/03/04 16:03:42;;;;;;;;;40.00;34.50;;;;;17.59;100.00;101460.94;6353098;22;45136;-89
2022/03/04 16:06:07;;;;;;;;;34.75;33.00;;;;;17.59;100.00;101474.19;6351303;22;45206;-89
2022/03/04 16:08:33;;;;;;;;;43.75;34.50;;;;;17.60;100.00;101464.50;6345431;22;45291;-89
2022/03/04 16:10:58;;;;;;;;;37.25;32.75;;;;;17.56;100.00;101467.88;6330671;22;45301;-89
2022/03/04 16:13:24;;;;;;;;;42.25;31.50;;;;;17.50;100.00;101461.56;6302898;22;45305;-89
2022/03/04 16:15:49;;;;;;;;;40.25;34.50;;;;;17.44;100.00;101474.66;6330128;22;45483;-89
2022/03/04 16:18:15;;;;;;;;;49.75;37.25;;;;;17.40;100.00;101471.00;6331583;22;48250;-92
2022/03/04 16:20:41;;;;;;;;;42.25;33.00;;;;;17.36;100.00;101469.13;6304673;22;45273;-91
2022/03/04 16:23:07;;;;;;;;;38.25;34.25;;;;;17.24;100.00;101463.47;6303864;22;45444;-89
2022/03/04 16:25:33;;;;;;;;;50.50;35.50;;;;;17.14;100.00;101460.50;6328451;22;45518;-89
2022/03/04 16:27:58;;;;;;;;;47.75;39.50;;;;;17.11;100.00;101465.72;6330852;22;46794;-90
2022/03/04 16:30:23;;;;;;;;;46.25;37.00;;;;;17.05;100.00;101455.84;6329748;22;45687;-89
2022/03/04 16:32:49;;;;;;;;;43.00;34.25;;;;;17.00;100.00;101465.41;6332905;22;45371;-89
2022/03/04 16:35:14;;;;;;;;;46.75;37.00;;;;;16.98;100.00;101456.53;6333167;22;45467;-89
2022/03/04 16:37:39;;;;;;;;;45.50;36.75;;;;;17.01;100.00;101467.19;6332238;22;45396;-89
2022/03/04 16:40:05;;;;;;;;;44.25;36.50;;;;;16.99;100.00;101466.25;6303479;22;45404;-89
2022/03/04 16:42:31;;;;;;;;;49.25;37.50;;;;;16.92;100.00;101458.97;6303419;22;45253;-89
2022/03/04 16:44:56;;;;;;;;;42.75;35.50;;;;;16.89;100.00;101458.88;6333007;22;45226;-89
2022/03/04 16:47:22;;;;;;;;;50.50;40.25;;;;;16.90;100.00;101464.25;6330688;22;45589;-90
2022/03/04 16:49:48;;;;;;;;;49.25;38.25;;;;;16.89;100.00;101470.38;6329157;22;45395;-91
2022/03/04 16:52:15;;;;;;;;;43.50;32.75;;;;;16.88;100.00;101471.22;6305112;22;45435;-90
2022/03/04 16:54:40;;;;;;;;;53.75;40.50;;;;;16.89;100.00;101477.44;6304938;22;45376;-89
2022/03/04 16:57:06;;;;;;;;;52.75;40.00;;;;;16.78;100.00;101472.69;6303853;22;47138;-88
2022/03/04 16:59:32;;;;;;;;;45.50;36.00;;;;;16.80;100.00;101470.09;6334159;22;45462;-90
2022/03/04 17:01:57;;;;;;;;;38.00;30.75;;;;;16.78;100.00;101470.03;6326515;22;45446;-88
2022/03/04 17:04:22;;;;;;;;;40.00;33.50;;;;;16.72;100.00;101459.25;6332245;22;45479;-90
2022/03/04 17:06:48;;;;;;;;;47.25;35.75;;;;;16.70;100.00;101466.28;6329001;22;46825;-91
2022/03/04 17:09:13;;;;;;;;;39.75;35.75;;;;;16.60;100.00;101459.75;6332389;22;45382;-91
2022/03/04 17:11:39;;;;;;;;;45.50;36.25;;;;;16.53;100.00;101475.47;6333971;22;45301;-89
2022/03/04 17:14:04;;;;;;;;;37.75;31.25;;;;;16.47;100.00;101477.00;6329330;22;45792;-89
2022/03/04 17:16:30;;;;;;;;;45.25;36.00;;;;;16.39;100.00;101479.44;6331575;22;46334;-89
2022/03/04 17:18:55;;;;;;;;;44.25;36.50;;;;;16.37;100.00;101483.75;6334273;22;45269;-91
2022/03/04 17:21:25;;;;;;;;;40.25;34.25;;;;;16.33;100.00;101480.13;6334923;22;45334;-92
2022/03/04 17:23:51;;;;;;;;;40.50;34.75;;;;;16.27;100.00;101475.50;6306489;22;45619;-91
2022/03/04 17:26:16;;;;;;;;;41.00;34.75;;;;;16.27;100.00;101478.16;6330220;22;47311;-90
2022/03/04 17:28:42;;;;;;;;;35.75;32.75;;;;;16.26;100.00;101478.13;6329992;22;45428;-91
2022/03/04 17:31:07;;;;;;;;;37.75;29.75;;;;;16.24;100.00;101488.66;6303741;22;45410;-91
2022/03/04 17:33:33;;;;;;;;;40.00;32.75;;;;;16.23;100.00;101489.50;6335169;22;45318;-89
2022/03/04 17:35:59;;;;;;;;;36.75;33.50;;;;;16.16;100.00;101487.47;6334493;22;46209;-89
2022/03/04 17:38:24;;;;;;;;;46.00;36.00;;;;;16.12;100.00;101485.59;6305123;22;45560;-90
2022/03/04 17:40:50;;;;;;;;;37.25;31.75;;;;;16.08;100.00;101490.78;6330505;22;45851;-90
2022/03/04 17:43:15;;;;;;;;;36.00;33.00;;;;;16.08;100.00;101492.53;6307537;22;45351;-89
2022/03/04 17:45:41;;;;;;;;;32.75;30.00;;;;;16.03;100.00;101492.31;6327610;22;47276;-90
2022/03/04 17:48:06;;;;;;;;;36.50;30.50;;;;;15.95;100.00;101477.94;6333335;22;45600;-91
2022/03/04 17:50:31;;;;;;;;;29.00;26.25;;;;;16.05;100.00;101503.94;6331461;22;45282;-89
2022/03/04 17:52:57;;;;;;;;;32.50;26.75;;;;;16.04;100.00;101504.72;6329181;22;45397;-91
2022/03/04 17:55:22;;;;;;;;;29.00;24.25;;;;;15.95;100.00;101501.78;6332256;22;45394;-90
2022/03/04 17:57:48;;;;;;;;;30.50;22.25;;;;;15.91;100.00;101506.03;6330783;22;45707;-90
2022/03/04 18:00:14;;;;;;;;;30.25;26.00;;;;;15.96;100.00;101515.06;6331646;22;45517;-90
2022/03/04 18:02:43;;;;;;;;;30.25;24.00;;;;;15.95;100.00;101517.66;6332686;22;45413;-89
2022/03/04 18:05:11;;;;;;;;;23.67;21.00;;;;;15.95;100.00;101513.22;6300506;22;47257;-90
2022/03/04 18:07:36;;;;;;;;;24.33;23.33;;;;;15.86;100.00;101508.53;6333005;22;45403;-90
2022/03/04 18:10:02;;;;;;;;;25.67;22.33;;;;;15.84;100.00;101511.97;6303011;22;45321;-91
2022/03/04 18:12:27;;;;;;;;;25.00;20.00;;;;;15.83;100.00;101515.44;6330243;22;45500;-90
2022/03/04 18:14:53;;;;;;;;;23.67;22.00;;;;;15.80;100.00;101524.19;6300544;22;48386;-90
2022/03/04 18:17:18;;;;;;;;;26.67;22.33;;;;;15.76;100.00;101517.00;6332357;22;45664;-90
2022/03/04 18:19:44;;;;;;;;;22.00;19.67;;;;;15.78;100.00;101528.53;6329214;22;46207;-90
2022/03/04 18:22:10;;;;;;;;;22.67;18.33;;;;;15.72;100.00;101531.84;6331322;22;45241;-91
2022/03/04 18:24:37;;;;;;;;;21.33;19.67;;;;;15.76;100.00;101532.88;6329749;22;47190;-90
2022/03/04 18:27:03;;;;;;;;;26.00;23.50;;;;;15.70;100.00;101533.53;6303093;22;45967;-90
2022/03/04 18:29:28;;;;;;;;;17.33;17.33;;;;;15.66;100.00;101528.97;6335017;22;45272;-91